Time;durP1;ratioP1;P1;durP2;ratioP2;P2;SDS_P1;SDS_P2;PMS_P1;PMS_P2;Temp;Humidity;BMP_temperature;BMP_pressure;BME280_temperature;BME280_humidity;BME280_pressure;Samples;Min_cycle;Max_cycle;Signal;HPM_P1;HPM_P2
2022/06/16 00:00:57;;;;;;;8.68;5.53;;;15.10;99.90;;;;;;5075163;28;20032;-64
2022/06/16 00:03:23;;;;;;;9.70;5.30;;;14.90;99.90;;;;;;5072531;28;20194;-64
2022/06/16 00:05:49;;;;;;;7.47;5.30;;;14.90;99.90;;;;;;5075243;28;20446;-64
2022/06/16 00:08:16;;;;;;;7.53;5.20;;;15.00;99.90;;;;;;5074781;28;20480;-64
2022/06/16 00:13:39;;;;;;;8.82;5.10;;;15.10;99.90;;;;;;5072820;28;20366;-64
2022/06/16 00:16:06;;;;;;;8.48;5.10;;;15.10;99.90;;;;;;5072115;28;20473;-64
2022/06/16 00:18:32;;;;;;;9.18;5.78;;;15.00;99.90;;;;;;5072676;28;20045;-65
2022/06/16 00:20:58;;;;;;;10.90;5.50;;;14.90;99.90;;;;;;5074780;28;20462;-64
2022/06/16 00:23:23;;;;;;;9.40;5.43;;;14.90;99.90;;;;;;5073711;28;20036;-66
2022/06/16 00:25:49;;;;;;;7.20;5.13;;;15.00;99.90;;;;;;5075011;28;20072;-64
2022/06/16 00:28:15;;;;;;;10.10;5.50;;;14.90;99.90;;;;;;5073407;28;20059;-64
2022/06/16 00:30:41;;;;;;;10.63;5.68;;;14.80;99.90;;;;;;5072051;28;20048;-65
2022/06/16 00:33:08;;;;;;;8.98;4.97;;;14.80;99.90;;;;;;5073263;28;20051;-65
2022/06/16 00:35:34;;;;;;;9.68;5.00;;;14.90;99.90;;;;;;5074780;28;20162;-65
2022/06/16 00:38:00;;;;;;;8.48;5.00;;;14.90;99.90;;;;;;5074282;28;20044;-64
2022/06/16 00:40:25;;;;;;;8.10;5.32;;;15.00;99.90;;;;;;5074299;28;20350;-64
2022/06/16 00:42:51;;;;;;;8.57;4.90;;;15.00;99.90;;;;;;5073237;28;20039;-64
2022/06/16 00:45:47;;;;;;;6.82;4.47;;;14.90;99.90;;;;;;5073171;28;20033;-64
2022/06/16 00:48:22;;;;;;;7.20;5.10;;;15.00;99.90;;;;;;5072828;28;20090;-64
2022/06/16 00:50:54;;;;;;;14.27;5.30;;;15.00;99.90;;;;;;5074897;28;20085;-63
2022/06/16 00:53:20;;;;;;;9.27;5.32;;;15.00;99.90;;;;;;5070890;28;20052;-63
2022/06/16 00:55:47;;;;;;;7.93;5.45;;;15.00;99.90;;;;;;5074518;28;20037;-63
2022/06/16 00:58:13;;;;;;;9.07;5.10;;;15.10;99.90;;;;;;5074261;28;20047;-65
2022/06/16 01:00:45;;;;;;;9.13;5.50;;;15.10;99.90;;;;;;5073419;28;20048;-63
2022/06/16 01:03:13;;;;;;;11.55;5.50;;;15.00;99.90;;;;;;5071560;28;20115;-64
2022/06/16 01:05:39;;;;;;;8.77;5.25;;;14.90;99.90;;;;;;5074549;28;20101;-63
2022/06/16 01:08:06;;;;;;;7.95;5.18;;;14.90;99.90;;;;;;5072116;28;20036;-63
2022/06/16 01:10:40;;;;;;;8.15;5.30;;;15.00;99.90;;;;;;5074837;28;20044;-63
2022/06/16 01:13:42;;;;;;;10.18;4.95;;;15.00;99.90;;;;;;5071978;28;20032;-64
2022/06/16 01:16:19;;;;;;;10.45;5.10;;;14.80;99.90;;;;;;5073044;28;20040;-64
2022/06/16 01:19:06;;;;;;;6.70;4.78;;;14.70;99.90;;;;;;5069496;28;20025;-64
2022/06/16 01:22:00;;;;;;;8.48;5.20;;;14.70;99.90;;;;;;5071840;28;20047;-65
2022/06/16 01:24:54;;;;;;;8.93;5.30;;;14.60;99.90;;;;;;5071829;28;20036;-64
2022/06/16 01:27:39;;;;;;;;;;;14.50;99.90;;;;;;5073553;28;20083;-65
2022/06/16 01:30:10;;;;;;;9.27;5.90;;;14.50;99.90;;;;;;5074873;28;19985;-65
2022/06/16 01:32:42;;;;;;;9.65;5.80;;;14.50;99.90;;;;;;5078137;28;20090;-64
2022/06/16 01:35:22;;;;;;;7.68;5.25;;;14.50;99.90;;;;;;5074872;28;20237;-64
2022/06/16 01:38:06;;;;;;;8.88;6.22;;;14.60;99.90;;;;;;5076263;28;20361;-63
2022/06/16 01:40:35;;;;;;;10.05;5.75;;;14.40;99.90;;;;;;5076890;28;20036;-64
2022/06/16 01:43:22;;;;;;;9.80;5.57;;;14.40;99.90;;;;;;5077077;28;20472;-63
2022/06/16 01:45:55;;;;;;;10.45;6.25;;;14.40;99.90;;;;;;5072755;28;20381;-64
2022/06/16 01:48:23;;;;;;;10.93;5.97;;;14.50;99.90;;;;;;5077600;28;20036;-62
2022/06/16 01:50:59;;;;;;;9.93;6.00;;;14.40;99.90;;;;;;5077943;28;20047;-63
2022/06/16 01:53:45;;;;;;;10.57;5.43;;;14.40;99.90;;;;;;5072883;28;20374;-63
2022/06/16 01:56:19;;;;;;;8.73;6.18;;;14.40;99.90;;;;;;5074495;28;20040;-65
2022/06/16 01:58:53;;;;;;;8.43;6.45;;;14.30;99.90;;;;;;5075940;28;20102;-65
2022/06/16 02:01:22;;;;;;;9.63;6.20;;;14.20;99.90;;;;;;5075434;28;21544;-63
2022/06/16 02:03:54;;;;;;;11.15;7.03;;;14.10;99.90;;;;;;5072752;28;20040;-63
2022/06/16 02:06:28;;;;;;;10.52;7.00;;;14.20;99.90;;;;;;5077250;28;20062;-64
2022/06/16 02:08:59;;;;;;;9.60;7.38;;;14.10;99.90;;;;;;5077035;28;20430;-63
2022/06/16 02:11:31;;;;;;;10.15;7.50;;;14.10;99.90;;;;;;5074270;28;20064;-64
2022/06/16 02:14:12;;;;;;;10.73;7.43;;;14.10;99.90;;;;;;5077285;28;20047;-64
2022/06/16 02:16:39;;;;;;;12.48;7.03;;;14.10;99.90;;;;;;5076049;28;20652;-64
2022/06/16 02:19:10;;;;;;;11.10;6.40;;;14.00;99.90;;;;;;5075204;28;20361;-64
2022/06/16 02:21:39;;;;;;;8.73;6.00;;;14.10;99.90;;;;;;5074561;28;20098;-64
2022/06/16 02:24:08;;;;;;;9.57;6.30;;;14.00;99.90;;;;;;5099718;28;20040;-64
2022/06/16 02:26:34;;;;;;;9.27;6.93;;;14.00;99.90;;;;;;5075656;28;20037;-64
2022/06/16 02:29:19;;;;;;;10.00;6.30;;;14.00;99.90;;;;;;5076744;28;20456;-64
2022/06/16 02:31:49;;;;;;;9.40;6.90;;;14.00;99.90;;;;;;5074718;28;20071;-63
2022/06/16 02:34:27;;;;;;;11.30;7.13;;;14.00;99.90;;;;;;5074352;28;20501;-64
2022/06/16 02:37:16;;;;;;;10.23;6.53;;;14.00;99.90;;;;;;5075146;28;20037;-64
2022/06/16 02:40:18;;;;;;;8.43;6.47;;;14.00;99.90;;;;;;5078353;28;20111;-64
2022/06/16 02:43:09;;;;;;;9.55;6.40;;;13.90;99.90;;;;;;5074813;28;20119;-64
2022/06/16 02:45:40;;;;;;;11.30;6.80;;;13.90;99.90;;;;;;5073727;28;20032;-65
2022/06/16 02:48:15;;;;;;;9.40;6.43;;;13.80;99.90;;;;;;5075621;28;20040;-65
2022/06/16 02:50:58;;;;;;;11.15;6.07;;;13.80;99.90;;;;;;5076693;28;20036;-65
2022/06/16 02:53:45;;;;;;;8.88;5.97;;;13.80;99.90;;;;;;5074265;28;20060;-64
2022/06/16 02:56:27;;;;;;;10.48;5.88;;;13.80;99.90;;;;;;5073521;28;20051;-65
2022/06/16 02:58:57;;;;;;;10.43;6.28;;;13.70;99.90;;;;;;5077090;28;20123;-64
2022/06/16 03:01:24;;;;;;;9.27;6.10;;;13.70;99.90;;;;;;5074260;28;20033;-64
2022/06/16 03:04:09;;;;;;;9.35;5.95;;;13.70;99.90;;;;;;5075700;28;20359;-64
2022/06/16 03:06:35;;;;;;;8.30;6.07;;;13.70;99.90;;;;;;5100317;28;20038;-64
2022/06/16 03:09:01;;;;;;;8.88;5.90;;;13.70;99.90;;;;;;5076338;28;20036;-64
2022/06/16 03:11:27;;;;;;;9.13;5.78;;;13.60;99.90;;;;;;5075933;28;20052;-65
2022/06/16 03:13:53;;;;;;;8.93;5.93;;;13.60;99.90;;;;;;5075114;28;20033;-64
2022/06/16 03:16:20;;;;;;;10.38;5.72;;;13.50;99.90;;;;;;5076225;28;20040;-64
2022/06/16 03:18:46;;;;;;;8.82;6.00;;;13.70;99.90;;;;;;5073982;28;20033;-64
2022/06/16 03:21:11;;;;;;;8.32;5.68;;;13.60;99.90;;;;;;5075307;28;20040;-64
2022/06/16 03:23:37;;;;;;;9.63;5.63;;;13.60;99.90;;;;;;5074993;28;20040;-65
2022/06/16 03:26:03;;;;;;;11.13;5.63;;;13.60;99.90;;;;;;5075383;28;20437;-64
2022/06/16 03:28:29;;;;;;;8.85;5.95;;;13.60;99.90;;;;;;5075811;28;20036;-65
2022/06/16 03:30:54;;;;;;;10.77;6.10;;;13.60;99.90;;;;;;5074985;28;20036;-64
2022/06/16 03:33:20;;;;;;;8.60;5.50;;;13.60;99.90;;;;;;5073602;28;20036;-65
2022/06/16 03:35:46;;;;;;;9.68;5.78;;;13.50;99.90;;;;;;5074445;28;20102;-64
2022/06/16 03:40:40;;;;;;;8.30;5.55;;;13.50;99.90;;;;;;5075492;28;20057;-65
2022/06/16 03:43:08;;;;;;;9.18;5.43;;;13.60;99.90;;;;;;5075902;28;20047;-65
2022/06/16 03:45:34;;;;;;;9.30;5.53;;;13.50;99.90;;;;;;5072825;28;20472;-64
2022/06/16 03:48:00;;;;;;;8.30;4.90;;;13.60;99.90;;;;;;5074464;28;20109;-63
2022/06/16 03:50:25;;;;;;;9.43;5.68;;;13.60;99.90;;;;;;5075442;28;20036;-65
2022/06/16 03:52:51;;;;;;;9.05;5.65;;;13.60;99.90;;;;;;5072125;28;20377;-66
2022/06/16 03:55:17;;;;;;;8.88;5.15;;;13.70;99.90;;;;;;5075712;28;20047;-64
2022/06/16 03:57:44;;;;;;;7.93;5.10;;;13.70;99.90;;;;;;5075443;28;20040;-63
2022/06/16 04:00:13;;;;;;;11.23;5.78;;;13.80;99.90;;;;;;5075358;28;20050;-64
2022/06/16 04:02:39;;;;;;;9.73;6.10;;;13.90;99.90;;;;;;5075606;28;20032;-65
2022/06/16 04:05:07;;;;;;;9.30;5.63;;;13.90;99.90;;;;;;5071440;28;20043;-65
2022/06/16 04:07:35;;;;;;;10.38;5.80;;;14.00;99.90;;;;;;5073565;28;20408;-64
2022/06/16 04:10:05;;;;;;;8.95;5.55;;;14.10;99.90;;;;;;5077018;28;20072;-65
2022/06/16 04:12:31;;;;;;;10.52;5.00;;;14.20;99.90;;;;;;5075258;28;20090;-65
2022/06/16 04:14:57;;;;;;;9.85;5.35;;;14.30;99.90;;;;;;5073610;28;20072;-64
2022/06/16 04:17:22;;;;;;;9.13;4.75;;;14.20;99.90;;;;;;5074855;28;20039;-64
2022/06/16 04:22:33;;;;;;;9.20;4.97;;;14.30;99.90;;;;;;5070925;28;20033;-65
2022/06/16 04:24:58;;;;;;;10.63;4.80;;;14.30;99.90;;;;;;5077877;28;20040;-64
2022/06/16 04:27:24;;;;;;;10.77;4.85;;;14.30;99.90;;;;;;5070730;28;20040;-65
2022/06/16 04:29:51;;;;;;;8.30;4.68;;;14.40;99.90;;;;;;5074489;28;20518;-65
2022/06/16 04:32:17;;;;;;;10.57;5.22;;;14.30;99.90;;;;;;5074980;28;20040;-64
2022/06/16 04:34:43;;;;;;;7.38;4.43;;;14.30;99.90;;;;;;5071416;28;20041;-64
2022/06/16 04:37:11;;;;;;;8.65;4.60;;;14.30;99.90;;;;;;5073772;28;20032;-64
2022/06/16 04:39:37;;;;;;;8.90;4.80;;;14.40;99.90;;;;;;5077436;28;20107;-65
2022/06/16 04:42:03;;;;;;;7.75;4.95;;;14.40;99.90;;;;;;5070744;28;20532;-64
2022/06/16 04:44:30;;;;;;;8.75;4.70;;;14.40;99.90;;;;;;5074557;28;20060;-64
2022/06/16 04:46:55;;;;;;;8.30;4.65;;;14.50;99.90;;;;;;5073738;28;20111;-65
2022/06/16 04:49:21;;;;;;;7.25;4.35;;;14.60;99.90;;;;;;5070982;28;20123;-64
2022/06/16 04:51:47;;;;;;;11.25;5.35;;;14.60;99.90;;;;;;5074400;28;20115;-66
2022/06/16 04:54:12;;;;;;;8.10;4.88;;;14.60;99.90;;;;;;5073169;28;20161;-64
2022/06/16 04:56:38;;;;;;;8.48;5.15;;;14.70;99.90;;;;;;5074380;28;20056;-65
2022/06/16 04:59:05;;;;;;;9.35;5.35;;;14.80;99.90;;;;;;5072539;28;20128;-65
2022/06/16 05:01:31;;;;;;;8.88;5.38;;;14.80;99.90;;;;;;5079651;28;20032;-64
2022/06/16 05:03:56;;;;;;;8.15;5.43;;;14.90;99.90;;;;;;5082767;28;20114;-64
2022/06/16 05:06:22;;;;;;;8.32;5.55;;;15.00;99.90;;;;;;5081445;28;20028;-65
2022/06/16 05:08:48;;;;;;;9.07;5.10;;;15.00;99.90;;;;;;5076704;28;20029;-63
2022/06/16 05:11:14;;;;;;;9.23;6.03;;;15.20;99.90;;;;;;5073808;28;20049;-64
2022/06/16 05:13:40;;;;;;;10.25;5.57;;;15.20;99.90;;;;;;5072689;28;20084;-64
2022/06/16 05:16:06;;;;;;;11.00;6.22;;;15.30;99.90;;;;;;5071972;28;20064;-64
2022/06/16 05:18:32;;;;;;;9.70;5.90;;;15.40;99.90;;;;;;5071319;28;20078;-64
2022/06/16 05:21:13;;;;;;;11.70;5.55;;;15.40;99.90;;;;;;5072737;28;20032;-64
2022/06/16 05:23:39;;;;;;;8.63;5.60;;;15.40;99.90;;;;;;5077562;28;20093;-66
2022/06/16 05:26:06;;;;;;;8.10;5.53;;;15.40;99.90;;;;;;5094687;28;20081;-64
2022/06/16 05:28:32;;;;;;;8.65;5.60;;;15.50;99.90;;;;;;5070985;28;20449;-63
2022/06/16 05:30:58;;;;;;;7.78;5.47;;;15.60;99.90;;;;;;5074169;28;20033;-64
2022/06/16 05:33:24;;;;;;;9.45;6.28;;;15.90;99.90;;;;;;5075198;28;20040;-64
2022/06/16 05:36:02;;;;;;;9.15;6.10;;;16.60;99.90;;;;;;5072330;28;20036;-64
2022/06/16 05:38:28;;;;;;;9.38;5.93;;;17.30;99.90;;;;;;5071580;28;20102;-64
2022/06/16 05:40:57;;;;;;;8.68;5.68;;;18.00;99.90;;;;;;5073819;28;20028;-64
2022/06/16 05:43:23;;;;;;;9.88;5.57;;;18.60;99.90;;;;;;5074112;28;20123;-65
2022/06/16 05:45:49;;;;;;;9.32;5.68;;;19.10;99.90;;;;;;5073671;28;20117;-64
2022/06/16 05:48:15;;;;;;;10.60;5.63;;;19.30;99.90;;;;;;5074172;28;20491;-65
2022/06/16 05:50:40;;;;;;;7.85;5.63;;;19.60;99.90;;;;;;5070744;28;20351;-66
2022/06/16 05:53:06;;;;;;;7.15;4.57;;;19.40;99.90;;;;;;5073388;28;20047;-66
2022/06/16 05:55:31;;;;;;;6.97;3.67;;;19.70;99.90;;;;;;5073065;28;20048;-66
2022/06/16 05:57:57;;;;;;;7.63;3.53;;;20.30;99.90;;;;;;5071264;28;20039;-62
2022/06/16 06:00:23;;;;;;;8.25;3.30;;;20.70;99.90;;;;;;5074352;28;20039;-63
2022/06/16 06:02:51;;;;;;;6.38;3.30;;;21.30;99.90;;;;;;5074042;28;20032;-62
2022/06/16 06:05:17;;;;;;;7.95;3.15;;;21.60;99.90;;;;;;5074300;28;20036;-62
2022/06/16 06:18:40;;;;;;;5.88;2.72;;;24.10;98.80;;;;;;5073988;28;20036;-65
2022/06/16 06:21:06;;;;;;;3.58;1.67;;;24.30;98.30;;;;;;5072226;28;20361;-64
2022/06/16 06:23:31;;;;;;;4.68;2.00;;;24.10;96.90;;;;;;5077406;28;20437;-63
2022/06/16 06:25:57;;;;;;;7.05;2.17;;;25.00;96.30;;;;;;5077259;28;20051;-62
2022/06/16 06:28:23;;;;;;;5.45;2.10;;;25.20;96.90;;;;;;5076903;28;20047;-65
2022/06/16 06:30:49;;;;;;;4.32;2.30;;;25.10;96.70;;;;;;5076374;28;20056;-62
2022/06/16 06:33:14;;;;;;;5.00;2.30;;;25.40;96.40;;;;;;5075797;28;20453;-63
2022/06/16 06:35:40;;;;;;;4.25;1.80;;;25.50;96.30;;;;;;5072306;28;20076;-64
2022/06/16 06:38:06;;;;;;;6.25;2.95;;;25.40;95.90;;;;;;5076628;28;20719;-63
2022/06/16 06:40:34;;;;;;;5.45;2.20;;;25.40;94.50;;;;;;5073737;28;20103;-63
2022/06/16 06:43:00;;;;;;;5.95;2.33;;;25.60;95.20;;;;;;5076729;28;20119;-65
2022/06/16 06:45:26;;;;;;;4.68;2.70;;;25.80;95.40;;;;;;5079568;28;20035;-65
2022/06/16 06:47:53;;;;;;;5.43;2.58;;;25.90;95.00;;;;;;5075487;28;20036;-64
2022/06/16 06:50:22;;;;;;;3.13;2.10;;;26.10;94.80;;;;;;5058447;28;20052;-64
2022/06/16 06:52:49;;;;;;;3.15;1.75;;;26.40;93.50;;;;;;5067294;28;20076;-64
2022/06/16 06:55:15;;;;;;;3.58;1.95;;;26.70;92.90;;;;;;5076682;28;20118;-64
2022/06/16 06:57:41;;;;;;;4.43;2.00;;;26.40;93.10;;;;;;5076268;28;20044;-66
2022/06/16 07:00:07;;;;;;;3.35;1.90;;;25.90;93.50;;;;;;5073358;28;20123;-65
2022/06/16 07:02:33;;;;;;;4.65;2.40;;;25.10;94.00;;;;;;5076488;28;20079;-63
2022/06/16 07:04:58;;;;;;;4.45;2.30;;;24.40;94.70;;;;;;5073805;28;20063;-64
2022/06/16 07:07:25;;;;;;;4.25;2.20;;;24.00;95.50;;;;;;5074589;28;20106;-63
2022/06/16 07:09:51;;;;;;;4.78;2.03;;;23.60;96.10;;;;;;5077561;28;20051;-64
2022/06/16 07:12:18;;;;;;;3.85;1.73;;;23.30;96.30;;;;;;5076059;28;20040;-65
2022/06/16 07:14:46;;;;;;;5.35;1.80;;;22.90;95.80;;;;;;5075048;28;20127;-64
2022/06/16 07:17:13;;;;;;;3.97;1.73;;;23.00;96.10;;;;;;5075754;28;20039;-65
2022/06/16 07:19:38;;;;;;;5.95;1.80;;;23.00;95.70;;;;;;5073628;28;20063;-64
2022/06/16 07:22:05;;;;;;;3.88;1.98;;;22.80;96.10;;;;;;5073014;28;20106;-64
2022/06/16 07:24:31;;;;;;;3.70;1.65;;;22.80;96.30;;;;;;5075530;28;20439;-64
2022/06/16 07:26:57;;;;;;;5.63;1.65;;;22.60;96.30;;;;;;5072979;28;20083;-64
2022/06/16 07:29:23;;;;;;;5.97;1.90;;;22.60;96.30;;;;;;5075438;28;20350;-63
2022/06/16 07:31:49;;;;;;;3.20;1.60;;;22.70;96.20;;;;;;5075609;28;20047;-66
2022/06/16 07:34:15;;;;;;;5.50;1.67;;;22.90;95.60;;;;;;5072804;28;20040;-63
2022/06/16 07:36:41;;;;;;;3.65;1.58;;;22.60;95.60;;;;;;5075312;28;20399;-65
2022/06/16 07:39:08;;;;;;;3.08;1.33;;;22.60;95.80;;;;;;5074093;28;20120;-65
2022/06/16 07:41:36;;;;;;;3.42;1.77;;;22.80;95.20;;;;;;5075432;28;20108;-64
2022/06/16 07:44:04;;;;;;;3.15;1.67;;;22.70;95.40;;;;;;5075418;28;20028;-64
2022/06/16 07:46:31;;;;;;;3.10;1.20;;;22.60;95.70;;;;;;5072661;28;20487;-64
2022/06/16 07:48:56;;;;;;;3.13;1.20;;;22.60;95.80;;;;;;5076285;28;20040;-65
2022/06/16 07:51:22;;;;;;;2.50;1.00;;;22.80;94.20;;;;;;5075231;28;20029;-63
2022/06/16 07:53:48;;;;;;;4.70;1.40;;;22.80;94.20;;;;;;5074974;28;20052;-64
2022/06/16 07:56:14;;;;;;;4.35;1.27;;;22.70;94.40;;;;;;5070945;28;20450;-63
2022/06/16 07:58:41;;;;;;;4.38;1.35;;;22.70;93.90;;;;;;5072383;28;20040;-64
2022/06/16 08:01:09;;;;;;;4.22;1.42;;;22.70;94.40;;;;;;5072044;28;20462;-64
2022/06/16 08:03:35;;;;;;;5.30;1.52;;;22.60;94.70;;;;;;5075403;28;20032;-64
2022/06/16 08:06:05;;;;;;;2.95;1.30;;;22.50;94.70;;;;;;5076100;28;20506;-64
2022/06/16 08:08:31;;;;;;;3.45;1.50;;;22.60;94.40;;;;;;5074906;28;20111;-63
2022/06/16 08:10:56;;;;;;;4.20;1.50;;;22.70;94.20;;;;;;5083396;28;20511;-63
2022/06/16 08:13:23;;;;;;;2.65;1.30;;;22.40;94.70;;;;;;5075683;28;20507;-64
2022/06/16 08:15:50;;;;;;;4.10;1.70;;;22.40;94.80;;;;;;5070696;28;20037;-63
2022/06/16 08:18:20;;;;;;;4.57;1.98;;;22.40;95.10;;;;;;5074716;28;20040;-64
2022/06/16 08:20:45;;;;;;;3.70;1.60;;;22.30;95.40;;;;;;5069744;28;20041;-64
2022/06/16 08:23:12;;;;;;;4.63;1.50;;;22.40;95.30;;;;;;5071870;28;20044;-64
2022/06/16 08:25:39;;;;;;;3.63;1.90;;;22.60;95.30;;;;;;5074677;28;20076;-65
2022/06/16 08:28:06;;;;;;;5.70;1.95;;;22.80;94.30;;;;;;5073389;28;20048;-64
2022/06/16 08:30:32;;;;;;;4.60;2.22;;;22.80;94.70;;;;;;5074482;28;20036;-64
2022/06/16 08:32:59;;;;;;;4.55;2.15;;;22.70;95.10;;;;;;5071811;28;20047;-64
2022/06/16 08:35:25;;;;;;;4.80;1.90;;;22.60;95.40;;;;;;5071490;28;20055;-64
2022/06/16 08:37:51;;;;;;;5.32;2.05;;;22.70;95.40;;;;;;5073627;28;20036;-65
2022/06/16 08:40:18;;;;;;;4.18;2.45;;;22.80;94.80;;;;;;5072878;28;20063;-64
2022/06/16 08:42:54;;;;;;;5.15;2.20;;;22.90;94.90;;;;;;5072329;28;20051;-65
2022/06/16 08:45:30;;;;;;;4.90;2.03;;;22.80;95.10;;;;;;5072174;28;20052;-64
2022/06/16 08:48:10;;;;;;;4.00;2.00;;;22.70;95.00;;;;;;5074101;28;20040;-64
2022/06/16 08:50:48;;;;;;;5.82;2.40;;;22.80;95.00;;;;;;5099935;28;20036;-64
2022/06/16 08:53:20;;;;;;;3.90;2.38;;;22.80;95.20;;;;;;5070559;28;20388;-64
2022/06/16 08:55:53;;;;;;;5.10;2.35;;;22.60;95.10;;;;;;5069085;28;20536;-64
2022/06/16 08:58:39;;;;;;;4.35;2.40;;;22.40;95.40;;;;;;5071252;28;20469;-65
2022/06/16 09:01:35;;;;;;;3.65;1.92;;;22.60;95.40;;;;;;5071030;28;20041;-65
2022/06/16 09:04:11;;;;;;;5.18;2.30;;;22.70;95.40;;;;;;5071075;28;20109;-65
2022/06/16 09:07:02;;;;;;;5.55;2.58;;;22.70;95.50;;;;;;5072628;28;20059;-64
2022/06/16 09:12:44;;;;;;;4.65;2.40;;;22.40;95.10;;;;;;5073980;28;20058;-65
2022/06/16 09:15:24;;;;;;;5.82;2.53;;;22.40;95.30;;;;;;5069233;28;20044;-64
2022/06/16 09:18:08;;;;;;;6.78;2.90;;;22.50;95.30;;;;;;5099681;28;20036;-65
2022/06/16 09:20:45;;;;;;;5.03;2.60;;;22.70;95.10;;;;;;5070134;28;20039;-64
2022/06/16 09:23:40;;;;;;;6.60;2.63;;;22.60;95.00;;;;;;5069538;28;20041;-64
2022/06/16 09:26:24;;;;;;;4.57;2.22;;;22.70;95.00;;;;;;5073372;28;20056;-64
2022/06/16 09:29:01;;;;;;;5.00;2.65;;;22.60;95.10;;;;;;5076678;28;20047;-65
2022/06/16 09:31:48;;;;;;;7.53;3.78;;;22.80;95.00;;;;;;5069941;28;20040;-64
2022/06/16 09:34:33;;;;;;;4.15;2.67;;;22.70;94.60;;;;;;5069832;28;20071;-64
2022/06/16 09:37:07;;;;;;;5.97;2.63;;;22.80;94.80;;;;;;5100155;28;20055;-64
2022/06/16 09:39:39;;;;;;;;;;;22.80;94.90;;;;;;5072742;28;20511;-65
2022/06/16 09:42:33;;;;;;;6.72;3.00;;;22.80;95.10;;;;;;5071219;28;19916;-64
2022/06/16 09:45:18;;;;;;;5.53;3.40;;;22.70;95.10;;;;;;5049448;28;20041;-64
2022/06/16 09:47:49;;;;;;;6.65;3.10;;;22.60;94.90;;;;;;5077777;28;20120;-65
2022/06/16 09:50:48;;;;;;;4.70;2.90;;;22.40;95.10;;;;;;5077863;28;20160;-64
2022/06/16 09:53:35;;;;;;;4.45;2.67;;;22.50;95.30;;;;;;5073690;28;20087;-64
2022/06/16 09:56:10;;;;;;;6.95;2.70;;;22.60;95.30;;;;;;5073572;28;20041;-64
2022/06/16 09:58:45;;;;;;;4.90;2.70;;;22.80;95.20;;;;;;5074957;28;20028;-64
2022/06/16 10:01:14;;;;;;;5.57;2.72;;;23.00;94.90;;;;;;5073027;28;20387;-65
2022/06/16 10:04:01;;;;;;;4.05;2.42;;;23.30;94.70;;;;;;5076561;28;20123;-64
2022/06/16 10:06:53;;;;;;;4.97;2.50;;;23.40;94.60;;;;;;5072951;28;20032;-64
2022/06/16 10:09:26;;;;;;;5.15;2.95;;;23.60;94.00;;;;;;5073436;28;20036;-64
2022/06/16 10:12:14;;;;;;;4.65;2.30;;;23.50;94.30;;;;;;5075677;28;20039;-64
2022/06/16 10:14:57;;;;;;;7.05;2.20;;;23.70;94.20;;;;;;5073458;28;20546;-65
2022/06/16 10:17:23;;;;;;;4.85;2.63;;;23.70;94.50;;;;;;5076782;28;20040;-64
2022/06/16 10:19:50;;;;;;;5.00;2.90;;;23.80;94.60;;;;;;5074366;28;20043;-64
2022/06/16 10:22:21;;;;;;;4.63;2.30;;;23.90;94.40;;;;;;5074248;28;20040;-64
2022/06/16 10:25:35;;;;;;;4.32;2.75;;;23.90;94.40;;;;;;5077833;28;20534;-64
2022/06/16 10:28:23;;;;;;;5.63;2.97;;;24.10;94.20;;;;;;5063723;28;20109;-64
2022/06/16 10:30:49;;;;;;;5.13;3.05;;;24.20;94.20;;;;;;5072846;28;20151;-64
2022/06/16 10:33:30;;;;;;;4.25;2.67;;;23.90;94.20;;;;;;5077737;28;20059;-64
2022/06/16 10:36:23;;;;;;;5.20;2.80;;;24.00;94.30;;;;;;5072234;28;20048;-65
2022/06/16 10:39:15;;;;;;;6.37;2.60;;;23.90;94.50;;;;;;5079556;28;20449;-64
2022/06/16 10:41:55;;;;;;;6.63;2.80;;;23.90;94.40;;;;;;5075324;28;20619;-64
2022/06/16 10:44:25;;;;;;;5.80;2.70;;;23.90;94.60;;;;;;5073196;28;20041;-64
2022/06/16 10:46:55;;;;;;;5.35;2.80;;;23.70;94.70;;;;;;5072992;28;20089;-64
2022/06/16 10:49:31;;;;;;;6.97;2.50;;;24.10;94.00;;;;;;5074022;28;20057;-64
2022/06/16 10:52:11;;;;;;;5.38;2.42;;;23.90;94.70;;;;;;5075918;28;20368;-64
2022/06/16 10:54:59;;;;;;;5.90;3.00;;;24.00;94.90;;;;;;5075855;28;20052;-65
2022/06/16 10:57:28;;;;;;;6.05;2.78;;;24.10;94.00;;;;;;5071913;28;20415;-64
2022/06/16 11:00:13;;;;;;;6.78;3.03;;;24.00;94.00;;;;;;5074517;28;20043;-64
2022/06/16 11:02:59;;;;;;;5.60;2.88;;;24.10;94.00;;;;;;5073938;28;20028;-64
2022/06/16 11:05:27;;;;;;;5.45;2.60;;;24.20;93.90;;;;;;5076446;28;20033;-65
2022/06/16 11:07:53;;;;;;;4.32;2.40;;;24.30;93.80;;;;;;5074669;28;20036;-65
2022/06/16 11:10:34;;;;;;;6.07;3.00;;;24.30;93.60;;;;;;5074983;28;20044;-65
2022/06/16 11:13:01;;;;;;;5.15;2.50;;;24.20;94.10;;;;;;5071521;28;20076;-65
2022/06/16 11:15:46;;;;;;;5.65;3.03;;;24.10;94.00;;;;;;5073603;28;20111;-66
2022/06/16 11:18:19;;;;;;;5.28;2.53;;;24.10;93.80;;;;;;5105456;28;20094;-68
2022/06/16 11:20:48;;;;;;;5.93;3.22;;;24.20;93.60;;;;;;5074551;28;20458;-66
2022/06/16 11:23:33;;;;;;;6.80;2.67;;;24.30;93.90;;;;;;5073361;28;20488;-67
2022/06/16 11:26:14;;;;;;;7.07;3.28;;;24.40;93.40;;;;;;5056003;28;20104;-66
2022/06/16 11:28:46;;;;;;;4.70;2.85;;;24.40;93.70;;;;;;5074024;28;20123;-66
2022/06/16 11:31:21;;;;;;;5.30;2.70;;;24.30;93.80;;;;;;5073148;28;20106;-65
2022/06/16 11:34:07;;;;;;;8.70;2.90;;;24.10;94.10;;;;;;5074860;28;20561;-65
2022/06/16 11:36:47;;;;;;;6.13;2.80;;;24.30;94.50;;;;;;5070907;28;20037;-65
2022/06/16 11:39:34;;;;;;;8.82;2.90;;;24.50;94.60;;;;;;5073736;28;20051;-65
2022/06/16 11:42:00;;;;;;;5.45;2.90;;;24.80;93.50;;;;;;5071907;28;20789;-65
2022/06/16 11:44:31;;;;;;;4.45;2.90;;;25.00;93.30;;;;;;5073805;28;20116;-63
2022/06/16 11:47:12;;;;;;;5.68;2.55;;;25.20;93.30;;;;;;5074790;28;20453;-66
2022/06/16 11:50:00;;;;;;;4.70;2.85;;;25.30;93.20;;;;;;5075072;28;20055;-66
2022/06/16 11:52:43;;;;;;;6.80;3.20;;;25.20;93.10;;;;;;5098480;28;20051;-66
2022/06/16 11:55:31;;;;;;;5.97;2.85;;;25.40;93.30;;;;;;5082980;28;20079;-67
2022/06/16 11:58:21;;;;;;;7.18;2.95;;;25.30;93.60;;;;;;5089805;28;20127;-66
2022/06/16 12:00:51;;;;;;;8.23;3.55;;;25.40;93.60;;;;;;5072928;28;20047;-66
2022/06/16 12:03:19;;;;;;;6.20;3.15;;;25.30;93.90;;;;;;5073926;28;20605;-66
2022/06/16 12:06:13;;;;;;;5.50;3.25;;;25.10;93.80;;;;;;5097705;28;20355;-67
2022/06/16 12:09:03;;;;;;;5.90;2.97;;;24.90;93.70;;;;;;5057196;28;20179;-66
2022/06/16 12:11:41;;;;;;;5.60;3.10;;;24.70;93.70;;;;;;5099505;28;20040;-67
2022/06/16 12:14:19;;;;;;;5.38;3.47;;;25.00;93.50;;;;;;5069849;28;20040;-66
2022/06/16 12:16:56;;;;;;;4.88;3.22;;;25.10;93.70;;;;;;5099495;28;20082;-67
2022/06/16 12:19:27;;;;;;;6.18;3.00;;;25.30;94.00;;;;;;5073970;28;20331;-66
2022/06/16 12:22:03;;;;;;;5.65;3.13;;;25.60;93.10;;;;;;5054254;28;20037;-67
2022/06/16 12:24:45;;;;;;;9.98;3.22;;;25.60;93.30;;;;;;5074395;28;20071;-66
2022/06/16 12:27:24;;;;;;;4.72;3.20;;;25.50;93.50;;;;;;5070015;28;20040;-66
2022/06/16 12:30:12;;;;;;;4.82;3.17;;;25.80;93.50;;;;;;5072434;28;20540;-66
2022/06/16 12:32:50;;;;;;;7.50;3.38;;;25.80;93.30;;;;;;5073706;28;20120;-66
2022/06/16 12:35:19;;;;;;;5.93;2.80;;;25.90;92.90;;;;;;5072569;28;20055;-66
2022/06/16 12:37:55;;;;;;;5.95;3.10;;;25.90;93.00;;;;;;5071885;28;20115;-66
2022/06/16 12:40:35;;;;;;;6.53;3.17;;;25.70;93.20;;;;;;5073290;28;20093;-67
2022/06/16 12:43:07;;;;;;;5.63;3.20;;;25.40;93.20;;;;;;5073517;28;20071;-66
2022/06/16 12:45:40;;;;;;;6.53;2.97;;;25.30;93.30;;;;;;5071552;28;20040;-67
2022/06/16 12:48:14;;;;;;;7.50;2.70;;;25.30;93.40;;;;;;5074269;28;20036;-66
2022/06/16 12:50:47;;;;;;;5.55;2.65;;;25.60;92.80;;;;;;5073035;28;20048;-67
2022/06/16 12:53:17;;;;;;;6.55;2.88;;;25.80;92.50;;;;;;5071395;28;20410;-66
2022/06/16 12:55:52;;;;;;;5.63;3.08;;;25.60;92.70;;;;;;5073877;28;20110;-66
2022/06/16 12:58:27;;;;;;;7.15;3.15;;;25.70;92.80;;;;;;5071401;28;20461;-65
2022/06/16 13:00:59;;;;;;;9.07;3.33;;;25.60;93.00;;;;;;5101638;28;20033;-66
2022/06/16 13:03:49;;;;;;;7.57;3.20;;;25.60;93.20;;;;;;5073193;28;20040;-66
2022/06/16 13:06:18;;;;;;;7.07;3.00;;;25.20;93.00;;;;;;5075684;28;20067;-66
2022/06/16 13:08:48;;;;;;;5.20;2.95;;;25.50;93.20;;;;;;5074197;28;20062;-66
2022/06/16 13:11:25;;;;;;;5.30;2.65;;;25.70;92.80;;;;;;5074019;28;20051;-66
2022/06/16 13:13:56;;;;;;;6.80;2.90;;;25.70;92.40;;;;;;5076024;28;20045;-65
2022/06/16 13:16:27;;;;;;;4.57;2.97;;;25.50;92.70;;;;;;5072450;28;20066;-64
2022/06/16 13:19:00;;;;;;;6.80;2.90;;;25.50;92.70;;;;;;5073175;28;20509;-65
2022/06/16 13:21:47;;;;;;;6.28;3.00;;;25.30;92.50;;;;;;5073515;28;20033;-64
2022/06/16 13:24:23;;;;;;;7.25;2.90;;;25.50;92.80;;;;;;5075860;28;20071;-65
2022/06/16 13:27:06;;;;;;;5.28;2.75;;;25.60;93.10;;;;;;5073219;28;20094;-64
2022/06/16 13:29:52;;;;;;;6.35;2.78;;;25.90;92.60;;;;;;5078182;28;20039;-64
2022/06/16 13:32:20;;;;;;;7.97;3.00;;;26.10;92.50;;;;;;5075621;28;20050;-64
2022/06/16 13:34:55;;;;;;;6.57;2.95;;;26.10;92.60;;;;;;5076259;28;20063;-64